sensor_id;sensor_type;location;lat;lon;timestamp;P1;durP1;ratioP1;P2;durP2;ratioP2
11052;SDS011;55230;42.602;23.470;2023-12-20T00:02:20;15.32;;;9.35;;
11052;SDS011;55230;42.602;23.470;2023-12-20T00:04:45;15.60;;;11.88;;
11052;SDS011;55230;42.602;23.470;2023-12-20T00:07:10;21.88;;;11.85;;
11052;SDS011;55230;42.602;23.470;2023-12-20T00:09:36;23.20;;;13.10;;
11052;SDS011;55230;42.602;23.470;2023-12-20T00:12:01;21.40;;;10.68;;
11052;SDS011;55230;42.602;23.470;2023-12-20T00:14:26;15.20;;;9.07;;
11052;SDS011;55230;42.602;23.470;2023-12-20T00:16:52;13.00;;;8.93;;
11052;SDS011;55230;42.602;23.470;2023-12-20T00:19:17;15.63;;;9.35;;
11052;SDS011;55230;42.602;23.470;2023-12-20T00:21:42;12.77;;;8.27;;
11052;SDS011;55230;42.602;23.470;2023-12-20T00:24:08;24.17;;;12.57;;
11052;SDS011;55230;42.602;23.470;2023-12-20T00:26:33;30.50;;;13.32;;
11052;SDS011;55230;42.602;23.470;2023-12-20T00:28:59;44.72;;;25.55;;
11052;SDS011;55230;42.602;23.470;2023-12-20T00:31:24;40.40;;;24.25;;
11052;SDS011;55230;42.602;23.470;2023-12-20T00:33:50;38.05;;;16.40;;
11052;SDS011;55230;42.602;23.470;2023-12-20T00:36:15;20.70;;;13.70;;
11052;SDS011;55230;42.602;23.470;2023-12-20T00:38:40;23.77;;;13.50;;
11052;SDS011;55230;42.602;23.470;2023-12-20T00:41:06;20.80;;;10.27;;
11052;SDS011;55230;42.602;23.470;2023-12-20T00:43:31;19.63;;;10.10;;
11052;SDS011;55230;42.602;23.470;2023-12-20T00:45:57;19.77;;;11.45;;
11052;SDS011;55230;42.602;23.470;2023-12-20T00:48:22;19.30;;;9.90;;
11052;SDS011;55230;42.602;23.470;2023-12-20T00:50:47;14.30;;;8.82;;
11052;SDS011;55230;42.602;23.470;2023-12-20T00:53:13;14.32;;;8.65;;
11052;SDS011;55230;42.602;23.470;2023-12-20T00:55:38;21.95;;;12.75;;
11052;SDS011;55230;42.602;23.470;2023-12-20T00:58:04;16.85;;;11.25;;
11052;SDS011;55230;42.602;23.470;2023-12-20T01:00:29;13.88;;;8.27;;
11052;SDS011;55230;42.602;23.470;2023-12-20T01:02:54;17.38;;;10.95;;
11052;SDS011;55230;42.602;23.470;2023-12-20T01:05:20;16.55;;;11.18;;
11052;SDS011;55230;42.602;23.470;2023-12-20T01:07:48;23.02;;;14.38;;
11052;SDS011;55230;42.602;23.470;2023-12-20T01:10:14;25.10;;;16.50;;
11052;SDS011;55230;42.602;23.470;2023-12-20T01:12:39;22.45;;;13.30;;
11052;SDS011;55230;42.602;23.470;2023-12-20T01:15:05;11.70;;;8.60;;
11052;SDS011;55230;42.602;23.470;2023-12-20T01:17:31;15.85;;;10.40;;
11052;SDS011;55230;42.602;23.470;2023-12-20T01:19:56;17.20;;;11.20;;
11052;SDS011;55230;42.602;23.470;2023-12-20T01:22:21;13.77;;;7.03;;
11052;SDS011;55230;42.602;23.470;2023-12-20T01:24:47;13.65;;;8.68;;
11052;SDS011;55230;42.602;23.470;2023-12-20T01:27:12;15.95;;;8.88;;
11052;SDS011;55230;42.602;23.470;2023-12-20T01:29:37;11.52;;;9.93;;
11052;SDS011;55230;42.602;23.470;2023-12-20T01:32:03;10.15;;;6.72;;
11052;SDS011;55230;42.602;23.470;2023-12-20T01:34:29;18.75;;;10.20;;
11052;SDS011;55230;42.602;23.470;2023-12-20T01:36:54;7.13;;;5.90;;
11052;SDS011;55230;42.602;23.470;2023-12-20T01:39:20;10.80;;;5.25;;
11052;SDS011;55230;42.602;23.470;2023-12-20T01:41:45;9.15;;;6.70;;
11052;SDS011;55230;42.602;23.470;2023-12-20T01:44:10;13.80;;;8.07;;
11052;SDS011;55230;42.602;23.470;2023-12-20T01:46:36;14.18;;;9.07;;
11052;SDS011;55230;42.602;23.470;2023-12-20T01:49:01;20.73;;;14.05;;
11052;SDS011;55230;42.602;23.470;2023-12-20T01:51:27;13.23;;;9.13;;
11052;SDS011;55230;42.602;23.470;2023-12-20T01:53:54;10.10;;;6.53;;
11052;SDS011;55230;42.602;23.470;2023-12-20T01:56:21;10.43;;;6.95;;
11052;SDS011;55230;42.602;23.470;2023-12-20T01:58:47;10.18;;;6.40;;
11052;SDS011;55230;42.602;23.470;2023-12-20T02:01:13;6.95;;;4.88;;
11052;SDS011;55230;42.602;23.470;2023-12-20T02:03:40;14.30;;;9.10;;
11052;SDS011;55230;42.602;23.470;2023-12-20T02:06:06;57.70;;;19.52;;
11052;SDS011;55230;42.602;23.470;2023-12-20T02:08:32;34.80;;;14.27;;
11052;SDS011;55230;42.602;23.470;2023-12-20T02:10:58;16.58;;;7.50;;
11052;SDS011;55230;42.602;23.470;2023-12-20T02:13:24;15.73;;;9.63;;
11052;SDS011;55230;42.602;23.470;2023-12-20T02:15:51;12.60;;;9.10;;
11052;SDS011;55230;42.602;23.470;2023-12-20T02:18:17;13.30;;;9.32;;
11052;SDS011;55230;42.602;23.470;2023-12-20T02:20:42;16.67;;;8.43;;
11052;SDS011;55230;42.602;23.470;2023-12-20T02:23:08;15.23;;;9.27;;
11052;SDS011;55230;42.602;23.470;2023-12-20T02:25:33;19.27;;;9.80;;
11052;SDS011;55230;42.602;23.470;2023-12-20T02:27:59;17.63;;;9.20;;
11052;SDS011;55230;42.602;23.470;2023-12-20T02:30:24;14.73;;;9.60;;
11052;SDS011;55230;42.602;23.470;2023-12-20T02:32:50;16.17;;;10.00;;
11052;SDS011;55230;42.602;23.470;2023-12-20T02:35:17;17.58;;;11.07;;
11052;SDS011;55230;42.602;23.470;2023-12-20T02:37:42;18.48;;;10.75;;
11052;SDS011;55230;42.602;23.470;2023-12-20T02:40:08;20.80;;;12.48;;
11052;SDS011;55230;42.602;23.470;2023-12-20T02:42:35;19.65;;;11.57;;
11052;SDS011;55230;42.602;23.470;2023-12-20T02:45:00;19.10;;;11.15;;
11052;SDS011;55230;42.602;23.470;2023-12-20T02:47:25;19.90;;;11.35;;
11052;SDS011;55230;42.602;23.470;2023-12-20T02:49:51;19.67;;;11.30;;
11052;SDS011;55230;42.602;23.470;2023-12-20T02:52:17;20.75;;;10.13;;
11052;SDS011;55230;42.602;23.470;2023-12-20T02:54:43;12.32;;;7.72;;
11052;SDS011;55230;42.602;23.470;2023-12-20T02:57:08;13.68;;;7.78;;
11052;SDS011;55230;42.602;23.470;2023-12-20T02:59:34;20.58;;;11.60;;
11052;SDS011;55230;42.602;23.470;2023-12-20T03:01:59;17.90;;;11.35;;
11052;SDS011;55230;42.602;23.470;2023-12-20T03:04:24;17.42;;;9.70;;
11052;SDS011;55230;42.602;23.470;2023-12-20T03:06:50;25.25;;;10.60;;
11052;SDS011;55230;42.602;23.470;2023-12-20T03:09:15;18.15;;;10.68;;
11052;SDS011;55230;42.602;23.470;2023-12-20T03:11:41;16.98;;;8.63;;
11052;SDS011;55230;42.602;23.470;2023-12-20T03:14:06;20.05;;;9.90;;
11052;SDS011;55230;42.602;23.470;2023-12-20T03:16:31;21.83;;;11.77;;
11052;SDS011;55230;42.602;23.470;2023-12-20T03:18:58;21.98;;;12.27;;
11052;SDS011;55230;42.602;23.470;2023-12-20T03:21:23;27.58;;;13.70;;
11052;SDS011;55230;42.602;23.470;2023-12-20T03:23:49;28.52;;;16.05;;
11052;SDS011;55230;42.602;23.470;2023-12-20T03:26:14;37.53;;;17.25;;
11052;SDS011;55230;42.602;23.470;2023-12-20T03:28:39;34.67;;;15.45;;
11052;SDS011;55230;42.602;23.470;2023-12-20T03:31:05;29.67;;;17.48;;
11052;SDS011;55230;42.602;23.470;2023-12-20T03:33:30;21.92;;;13.23;;
11052;SDS011;55230;42.602;23.470;2023-12-20T03:35:56;28.35;;;15.63;;
11052;SDS011;55230;42.602;23.470;2023-12-20T03:38:21;24.20;;;14.85;;
11052;SDS011;55230;42.602;23.470;2023-12-20T03:40:49;28.65;;;15.77;;
11052;SDS011;55230;42.602;23.470;2023-12-20T03:43:14;36.47;;;14.15;;
11052;SDS011;55230;42.602;23.470;2023-12-20T03:45:40;23.30;;;12.07;;
11052;SDS011;55230;42.602;23.470;2023-12-20T03:48:05;25.65;;;13.00;;
11052;SDS011;55230;42.602;23.470;2023-12-20T03:50:31;31.00;;;15.73;;
11052;SDS011;55230;42.602;23.470;2023-12-20T03:52:56;34.88;;;22.08;;
11052;SDS011;55230;42.602;23.470;2023-12-20T03:55:21;23.00;;;13.40;;
11052;SDS011;55230;42.602;23.470;2023-12-20T03:57:47;21.80;;;11.95;;
11052;SDS011;55230;42.602;23.470;2023-12-20T04:00:12;18.02;;;10.55;;
11052;SDS011;55230;42.602;23.470;2023-12-20T04:02:38;21.02;;;14.10;;
11052;SDS011;55230;42.602;23.470;2023-12-20T04:05:05;22.65;;;13.15;;
11052;SDS011;55230;42.602;23.470;2023-12-20T04:07:31;13.60;;;8.57;;
11052;SDS011;55230;42.602;23.470;2023-12-20T04:09:57;21.35;;;12.20;;
11052;SDS011;55230;42.602;23.470;2023-12-20T04:12:22;21.40;;;12.88;;
11052;SDS011;55230;42.602;23.470;2023-12-20T04:14:48;22.30;;;11.65;;
11052;SDS011;55230;42.602;23.470;2023-12-20T04:17:13;40.47;;;18.45;;
11052;SDS011;55230;42.602;23.470;2023-12-20T04:19:40;31.10;;;16.20;;
11052;SDS011;55230;42.602;23.470;2023-12-20T04:22:06;17.92;;;10.55;;
11052;SDS011;55230;42.602;23.470;2023-12-20T04:24:31;16.35;;;8.80;;
11052;SDS011;55230;42.602;23.470;2023-12-20T04:26:57;36.00;;;17.83;;
11052;SDS011;55230;42.602;23.470;2023-12-20T04:29:25;36.15;;;17.13;;
11052;SDS011;55230;42.602;23.470;2023-12-20T04:42:39;30.63;;;15.48;;
11052;SDS011;55230;42.602;23.470;2023-12-20T04:59:09;21.00;;;10.40;;
11052;SDS011;55230;42.602;23.470;2023-12-20T05:07:58;18.17;;;9.93;;
11052;SDS011;55230;42.602;23.470;2023-12-20T05:10:23;25.50;;;13.90;;
11052;SDS011;55230;42.602;23.470;2023-12-20T05:12:49;19.45;;;10.48;;
11052;SDS011;55230;42.602;23.470;2023-12-20T05:15:14;14.23;;;9.60;;
11052;SDS011;55230;42.602;23.470;2023-12-20T05:17:39;10.57;;;9.23;;
11052;SDS011;55230;42.602;23.470;2023-12-20T05:20:05;22.50;;;13.75;;
11052;SDS011;55230;42.602;23.470;2023-12-20T05:22:31;27.77;;;16.33;;
11052;SDS011;55230;42.602;23.470;2023-12-20T05:24:59;25.42;;;16.48;;
11052;SDS011;55230;42.602;23.470;2023-12-20T05:27:44;20.17;;;11.90;;
11052;SDS011;55230;42.602;23.470;2023-12-20T05:35:27;23.92;;;8.93;;
11052;SDS011;55230;42.602;23.470;2023-12-20T05:41:46;10.00;;;6.38;;
11052;SDS011;55230;42.602;23.470;2023-12-20T05:48:25;16.83;;;11.55;;
11052;SDS011;55230;42.602;23.470;2023-12-20T05:50:50;11.30;;;7.30;;
11052;SDS011;55230;42.602;23.470;2023-12-20T05:53:16;11.98;;;6.93;;
11052;SDS011;55230;42.602;23.470;2023-12-20T05:55:41;19.90;;;12.40;;
11052;SDS011;55230;42.602;23.470;2023-12-20T05:58:07;123.32;;;42.15;;
11052;SDS011;55230;42.602;23.470;2023-12-20T06:00:32;117.40;;;45.30;;
11052;SDS011;55230;42.602;23.470;2023-12-20T06:02:57;55.38;;;23.48;;
11052;SDS011;55230;42.602;23.470;2023-12-20T06:05:23;52.33;;;23.75;;
11052;SDS011;55230;42.602;23.470;2023-12-20T06:07:48;32.90;;;13.73;;
11052;SDS011;55230;42.602;23.470;2023-12-20T06:10:15;25.75;;;12.25;;
11052;SDS011;55230;42.602;23.470;2023-12-20T06:12:41;19.80;;;11.02;;
11052;SDS011;55230;42.602;23.470;2023-12-20T06:15:06;27.17;;;13.75;;
11052;SDS011;55230;42.602;23.470;2023-12-20T06:17:32;41.63;;;19.15;;
11052;SDS011;55230;42.602;23.470;2023-12-20T06:19:57;58.03;;;21.95;;
11052;SDS011;55230;42.602;23.470;2023-12-20T06:22:25;51.75;;;23.55;;
11052;SDS011;55230;42.602;23.470;2023-12-20T06:24:50;39.78;;;21.25;;
11052;SDS011;55230;42.602;23.470;2023-12-20T06:27:15;32.78;;;16.80;;
11052;SDS011;55230;42.602;23.470;2023-12-20T06:29:41;36.03;;;17.08;;
11052;SDS011;55230;42.602;23.470;2023-12-20T06:32:07;37.10;;;17.38;;
11052;SDS011;55230;42.602;23.470;2023-12-20T06:34:33;65.93;;;28.08;;
11052;SDS011;55230;42.602;23.470;2023-12-20T06:36:58;46.53;;;18.73;;
11052;SDS011;55230;42.602;23.470;2023-12-20T06:39:24;45.22;;;20.33;;
11052;SDS011;55230;42.602;23.470;2023-12-20T06:41:49;37.83;;;16.55;;
11052;SDS011;55230;42.602;23.470;2023-12-20T06:44:14;31.42;;;17.30;;
11052;SDS011;55230;42.602;23.470;2023-12-20T06:46:40;27.70;;;14.85;;
11052;SDS011;55230;42.602;23.470;2023-12-20T06:49:05;33.25;;;15.50;;
11052;SDS011;55230;42.602;23.470;2023-12-20T06:51:30;32.65;;;16.58;;
11052;SDS011;55230;42.602;23.470;2023-12-20T06:54:06;37.38;;;18.02;;
11052;SDS011;55230;42.602;23.470;2023-12-20T07:03:37;109.38;;;46.63;;
11052;SDS011;55230;42.602;23.470;2023-12-20T07:41:35;92.88;;;31.15;;
11052;SDS011;55230;42.602;23.470;2023-12-20T07:44:01;140.73;;;55.47;;
11052;SDS011;55230;42.602;23.470;2023-12-20T07:46:26;195.52;;;74.50;;
11052;SDS011;55230;42.602;23.470;2023-12-20T07:48:51;118.03;;;41.55;;
11052;SDS011;55230;42.602;23.470;2023-12-20T07:51:17;97.03;;;35.25;;
11052;SDS011;55230;42.602;23.470;2023-12-20T07:53:42;71.13;;;27.92;;
11052;SDS011;55230;42.602;23.470;2023-12-20T07:56:17;68.30;;;25.05;;
11052;SDS011;55230;42.602;23.470;2023-12-20T07:58:44;68.60;;;26.50;;
11052;SDS011;55230;42.602;23.470;2023-12-20T08:01:10;49.88;;;21.85;;
11052;SDS011;55230;42.602;23.470;2023-12-20T08:03:36;66.72;;;29.23;;
11052;SDS011;55230;42.602;23.470;2023-12-20T08:06:02;83.40;;;36.75;;
11052;SDS011;55230;42.602;23.470;2023-12-20T08:08:28;162.07;;;64.10;;
11052;SDS011;55230;42.602;23.470;2023-12-20T08:10:53;130.80;;;58.20;;
11052;SDS011;55230;42.602;23.470;2023-12-20T08:13:19;158.10;;;63.65;;
11052;SDS011;55230;42.602;23.470;2023-12-20T08:15:44;106.90;;;52.63;;
11052;SDS011;55230;42.602;23.470;2023-12-20T08:18:10;105.10;;;44.13;;
11052;SDS011;55230;42.602;23.470;2023-12-20T08:20:35;97.50;;;41.88;;
11052;SDS011;55230;42.602;23.470;2023-12-20T08:23:01;126.72;;;63.92;;
11052;SDS011;55230;42.602;23.470;2023-12-20T08:25:26;101.38;;;48.05;;
11052;SDS011;55230;42.602;23.470;2023-12-20T08:27:52;173.93;;;81.90;;
11052;SDS011;55230;42.602;23.470;2023-12-20T08:30:17;125.68;;;51.58;;
11052;SDS011;55230;42.602;23.470;2023-12-20T08:32:45;108.68;;;35.83;;
11052;SDS011;55230;42.602;23.470;2023-12-20T08:35:11;79.45;;;25.20;;
11052;SDS011;55230;42.602;23.470;2023-12-20T08:37:36;68.82;;;23.98;;
11052;SDS011;55230;42.602;23.470;2023-12-20T08:40:02;71.13;;;23.40;;
11052;SDS011;55230;42.602;23.470;2023-12-20T08:42:27;62.13;;;24.73;;
11052;SDS011;55230;42.602;23.470;2023-12-20T08:44:56;49.40;;;17.85;;
11052;SDS011;55230;42.602;23.470;2023-12-20T08:47:23;61.10;;;23.30;;
11052;SDS011;55230;42.602;23.470;2023-12-20T08:49:48;80.82;;;32.15;;
11052;SDS011;55230;42.602;23.470;2023-12-20T08:52:14;93.63;;;43.22;;
11052;SDS011;55230;42.602;23.470;2023-12-20T08:54:39;106.38;;;42.33;;
11052;SDS011;55230;42.602;23.470;2023-12-20T08:57:04;145.13;;;59.85;;
11052;SDS011;55230;42.602;23.470;2023-12-20T08:59:31;161.95;;;69.28;;
11052;SDS011;55230;42.602;23.470;2023-12-20T09:01:57;106.00;;;45.38;;
11052;SDS011;55230;42.602;23.470;2023-12-20T09:04:23;109.72;;;42.47;;
11052;SDS011;55230;42.602;23.470;2023-12-20T09:06:48;77.53;;;32.33;;
11052;SDS011;55230;42.602;23.470;2023-12-20T09:09:13;89.03;;;35.50;;
11052;SDS011;55230;42.602;23.470;2023-12-20T09:11:39;86.15;;;28.60;;
11052;SDS011;55230;42.602;23.470;2023-12-20T09:14:05;98.38;;;35.65;;
11052;SDS011;55230;42.602;23.470;2023-12-20T09:16:30;86.28;;;32.00;;
11052;SDS011;55230;42.602;23.470;2023-12-20T09:18:56;86.60;;;32.53;;
11052;SDS011;55230;42.602;23.470;2023-12-20T09:21:22;110.93;;;43.08;;
11052;SDS011;55230;42.602;23.470;2023-12-20T09:23:47;108.28;;;35.58;;
11052;SDS011;55230;42.602;23.470;2023-12-20T09:26:13;141.98;;;51.45;;
11052;SDS011;55230;42.602;23.470;2023-12-20T09:28:38;103.28;;;39.03;;
11052;SDS011;55230;42.602;23.470;2023-12-20T09:31:05;132.35;;;54.63;;
11052;SDS011;55230;42.602;23.470;2023-12-20T09:33:31;139.95;;;48.92;;
11052;SDS011;55230;42.602;23.470;2023-12-20T09:35:57;136.95;;;49.03;;
11052;SDS011;55230;42.602;23.470;2023-12-20T09:38:23;190.23;;;69.82;;
11052;SDS011;55230;42.602;23.470;2023-12-20T09:40:48;126.53;;;45.53;;
11052;SDS011;55230;42.602;23.470;2023-12-20T09:43:14;108.97;;;42.47;;
11052;SDS011;55230;42.602;23.470;2023-12-20T09:45:45;111.22;;;42.28;;
11052;SDS011;55230;42.602;23.470;2023-12-20T09:48:11;111.18;;;47.08;;
11052;SDS011;55230;42.602;23.470;2023-12-20T09:50:39;129.00;;;54.30;;
11052;SDS011;55230;42.602;23.470;2023-12-20T09:53:05;107.95;;;48.75;;
11052;SDS011;55230;42.602;23.470;2023-12-20T09:55:34;150.50;;;61.33;;
11052;SDS011;55230;42.602;23.470;2023-12-20T09:58:01;145.98;;;67.65;;
11052;SDS011;55230;42.602;23.470;2023-12-20T10:00:27;135.88;;;58.88;;
11052;SDS011;55230;42.602;23.470;2023-12-20T10:05:18;384.88;;;126.47;;
11052;SDS011;55230;42.602;23.470;2023-12-20T10:07:46;659.00;;;212.35;;
11052;SDS011;55230;42.602;23.470;2023-12-20T10:10:13;108.90;;;43.65;;
11052;SDS011;55230;42.602;23.470;2023-12-20T10:12:39;81.60;;;40.22;;
11052;SDS011;55230;42.602;23.470;2023-12-20T10:15:05;58.70;;;27.17;;
11052;SDS011;55230;42.602;23.470;2023-12-20T10:17:31;60.08;;;29.77;;
11052;SDS011;55230;42.602;23.470;2023-12-20T10:19:57;65.53;;;32.22;;
11052;SDS011;55230;42.602;23.470;2023-12-20T10:22:23;80.47;;;35.30;;
11052;SDS011;55230;42.602;23.470;2023-12-20T10:24:48;66.68;;;28.05;;
11052;SDS011;55230;42.602;23.470;2023-12-20T10:27:14;60.65;;;28.00;;
11052;SDS011;55230;42.602;23.470;2023-12-20T10:29:39;61.70;;;27.40;;
11052;SDS011;55230;42.602;23.470;2023-12-20T10:32:24;90.70;;;37.15;;
11052;SDS011;55230;42.602;23.470;2023-12-20T10:34:54;170.80;;;61.45;;
11052;SDS011;55230;42.602;23.470;2023-12-20T10:37:20;262.83;;;92.68;;
11052;SDS011;55230;42.602;23.470;2023-12-20T10:39:50;221.05;;;76.63;;
11052;SDS011;55230;42.602;23.470;2023-12-20T10:42:22;212.93;;;76.85;;
11052;SDS011;55230;42.602;23.470;2023-12-20T10:44:51;196.73;;;71.03;;
11052;SDS011;55230;42.602;23.470;2023-12-20T10:47:18;120.30;;;50.85;;
11052;SDS011;55230;42.602;23.470;2023-12-20T10:49:44;94.63;;;42.28;;
11052;SDS011;55230;42.602;23.470;2023-12-20T10:52:11;91.72;;;42.03;;
11052;SDS011;55230;42.602;23.470;2023-12-20T10:54:37;82.88;;;40.20;;
11052;SDS011;55230;42.602;23.470;2023-12-20T10:57:05;68.60;;;32.70;;
11052;SDS011;55230;42.602;23.470;2023-12-20T10:59:33;68.88;;;35.22;;
11052;SDS011;55230;42.602;23.470;2023-12-20T11:02:01;65.40;;;32.30;;
11052;SDS011;55230;42.602;23.470;2023-12-20T11:04:31;95.40;;;47.63;;
11052;SDS011;55230;42.602;23.470;2023-12-20T11:10:08;98.43;;;45.60;;
11052;SDS011;55230;42.602;23.470;2023-12-20T11:12:39;96.13;;;40.50;;
11052;SDS011;55230;42.602;23.470;2023-12-20T11:15:13;82.47;;;34.90;;
11052;SDS011;55230;42.602;23.470;2023-12-20T11:17:40;71.70;;;32.03;;
11052;SDS011;55230;42.602;23.470;2023-12-20T11:20:06;65.22;;;32.47;;
11052;SDS011;55230;42.602;23.470;2023-12-20T11:22:35;97.25;;;43.78;;
11052;SDS011;55230;42.602;23.470;2023-12-20T11:25:08;95.45;;;40.65;;
11052;SDS011;55230;42.602;23.470;2023-12-20T11:27:35;54.25;;;30.92;;
11052;SDS011;55230;42.602;23.470;2023-12-20T11:30:05;47.38;;;23.98;;
11052;SDS011;55230;42.602;23.470;2023-12-20T11:32:34;58.13;;;26.15;;
11052;SDS011;55230;42.602;23.470;2023-12-20T11:35:01;62.60;;;30.38;;
11052;SDS011;55230;42.602;23.470;2023-12-20T11:37:43;55.25;;;27.50;;
11052;SDS011;55230;42.602;23.470;2023-12-20T11:40:13;66.97;;;33.00;;
11052;SDS011;55230;42.602;23.470;2023-12-20T11:42:43;71.72;;;34.03;;
11052;SDS011;55230;42.602;23.470;2023-12-20T12:42:20;65.93;;;30.48;;
11052;SDS011;55230;42.602;23.470;2023-12-20T12:45:26;66.40;;;28.08;;
11052;SDS011;55230;42.602;23.470;2023-12-20T12:47:52;62.22;;;28.88;;
11052;SDS011;55230;42.602;23.470;2023-12-20T12:50:20;67.90;;;30.73;;
11052;SDS011;55230;42.602;23.470;2023-12-20T12:52:49;64.13;;;30.58;;
11052;SDS011;55230;42.602;23.470;2023-12-20T12:55:14;66.38;;;32.97;;
11052;SDS011;55230;42.602;23.470;2023-12-20T12:57:40;72.57;;;34.47;;
11052;SDS011;55230;42.602;23.470;2023-12-20T13:00:08;84.63;;;38.77;;
11052;SDS011;55230;42.602;23.470;2023-12-20T13:02:36;69.15;;;35.08;;
11052;SDS011;55230;42.602;23.470;2023-12-20T13:05:08;63.20;;;32.80;;
11052;SDS011;55230;42.602;23.470;2023-12-20T13:07:33;59.25;;;29.40;;
11052;SDS011;55230;42.602;23.470;2023-12-20T13:09:59;57.22;;;29.52;;
11052;SDS011;55230;42.602;23.470;2023-12-20T13:12:25;60.45;;;28.33;;
11052;SDS011;55230;42.602;23.470;2023-12-20T13:14:50;66.85;;;27.60;;
11052;SDS011;55230;42.602;23.470;2023-12-20T13:17:16;67.78;;;32.90;;
11052;SDS011;55230;42.602;23.470;2023-12-20T13:19:41;69.50;;;33.13;;
11052;SDS011;55230;42.602;23.470;2023-12-20T13:22:07;69.78;;;32.53;;
11052;SDS011;55230;42.602;23.470;2023-12-20T13:24:32;82.28;;;36.63;;
11052;SDS011;55230;42.602;23.470;2023-12-20T13:26:59;84.93;;;39.58;;
11052;SDS011;55230;42.602;23.470;2023-12-20T13:29:25;93.47;;;42.95;;
11052;SDS011;55230;42.602;23.470;2023-12-20T13:31:53;88.68;;;39.75;;
11052;SDS011;55230;42.602;23.470;2023-12-20T13:34:19;78.55;;;39.92;;
11052;SDS011;55230;42.602;23.470;2023-12-20T13:36:44;79.50;;;38.30;;
11052;SDS011;55230;42.602;23.470;2023-12-20T13:39:15;114.70;;;55.67;;
11052;SDS011;55230;42.602;23.470;2023-12-20T13:41:41;85.30;;;41.45;;
11052;SDS011;55230;42.602;23.470;2023-12-20T13:44:07;95.47;;;41.30;;
11052;SDS011;55230;42.602;23.470;2023-12-20T13:46:32;80.60;;;36.05;;
11052;SDS011;55230;42.602;23.470;2023-12-20T13:48:57;65.57;;;29.08;;
11052;SDS011;55230;42.602;23.470;2023-12-20T13:51:23;33.78;;;15.38;;
11052;SDS011;55230;42.602;23.470;2023-12-20T13:53:48;60.00;;;26.20;;
11052;SDS011;55230;42.602;23.470;2023-12-20T13:56:17;40.65;;;17.58;;
11052;SDS011;55230;42.602;23.470;2023-12-20T13:58:43;30.95;;;15.07;;
11052;SDS011;55230;42.602;23.470;2023-12-20T14:01:09;14.52;;;8.85;;
11052;SDS011;55230;42.602;23.470;2023-12-20T14:03:35;11.98;;;6.60;;
11052;SDS011;55230;42.602;23.470;2023-12-20T14:06:01;26.92;;;15.70;;
11052;SDS011;55230;42.602;23.470;2023-12-20T14:08:26;84.63;;;37.97;;
11052;SDS011;55230;42.602;23.470;2023-12-20T14:10:52;47.60;;;21.92;;
11052;SDS011;55230;42.602;23.470;2023-12-20T14:13:18;50.33;;;24.85;;
11052;SDS011;55230;42.602;23.470;2023-12-20T14:15:43;53.60;;;26.98;;
11052;SDS011;55230;42.602;23.470;2023-12-20T14:18:09;61.15;;;27.48;;
11052;SDS011;55230;42.602;23.470;2023-12-20T14:20:35;62.90;;;27.73;;
11052;SDS011;55230;42.602;23.470;2023-12-20T14:23:04;59.80;;;28.88;;
11052;SDS011;55230;42.602;23.470;2023-12-20T14:25:29;78.10;;;36.95;;
11052;SDS011;55230;42.602;23.470;2023-12-20T14:27:56;76.90;;;35.55;;
11052;SDS011;55230;42.602;23.470;2023-12-20T14:30:21;118.53;;;54.00;;
11052;SDS011;55230;42.602;23.470;2023-12-20T14:32:47;105.55;;;44.88;;
11052;SDS011;55230;42.602;23.470;2023-12-20T14:35:13;115.53;;;53.58;;
11052;SDS011;55230;42.602;23.470;2023-12-20T14:37:39;95.15;;;42.75;;
11052;SDS011;55230;42.602;23.470;2023-12-20T14:40:06;127.07;;;58.17;;
11052;SDS011;55230;42.602;23.470;2023-12-20T14:42:35;100.68;;;53.67;;
11052;SDS011;55230;42.602;23.470;2023-12-20T14:45:01;104.03;;;47.45;;
11052;SDS011;55230;42.602;23.470;2023-12-20T14:47:26;97.20;;;46.40;;
11052;SDS011;55230;42.602;23.470;2023-12-20T14:49:51;70.05;;;35.55;;
11052;SDS011;55230;42.602;23.470;2023-12-20T14:52:17;73.55;;;37.60;;
11052;SDS011;55230;42.602;23.470;2023-12-20T14:54:43;67.88;;;36.40;;
11052;SDS011;55230;42.602;23.470;2023-12-20T14:57:09;61.72;;;33.10;;
11052;SDS011;55230;42.602;23.470;2023-12-20T14:59:35;71.22;;;35.28;;
11052;SDS011;55230;42.602;23.470;2023-12-20T15:02:00;69.10;;;36.42;;
11052;SDS011;55230;42.602;23.470;2023-12-20T15:04:29;71.85;;;36.25;;
11052;SDS011;55230;42.602;23.470;2023-12-20T15:06:55;62.60;;;33.13;;
11052;SDS011;55230;42.602;23.470;2023-12-20T15:09:21;60.80;;;31.00;;
11052;SDS011;55230;42.602;23.470;2023-12-20T15:11:46;59.55;;;26.77;;
11052;SDS011;55230;42.602;23.470;2023-12-20T15:14:12;50.88;;;23.20;;
11052;SDS011;55230;42.602;23.470;2023-12-20T15:16:43;62.35;;;28.52;;
11052;SDS011;55230;42.602;23.470;2023-12-20T15:19:08;64.47;;;28.13;;
11052;SDS011;55230;42.602;23.470;2023-12-20T15:21:33;58.38;;;28.42;;
11052;SDS011;55230;42.602;23.470;2023-12-20T15:24:05;38.88;;;18.58;;
11052;SDS011;55230;42.602;23.470;2023-12-20T15:26:33;32.67;;;18.98;;
11052;SDS011;55230;42.602;23.470;2023-12-20T15:28:59;36.85;;;19.98;;
11052;SDS011;55230;42.602;23.470;2023-12-20T15:31:26;33.17;;;18.33;;
11052;SDS011;55230;42.602;23.470;2023-12-20T15:33:52;38.10;;;20.77;;
11052;SDS011;55230;42.602;23.470;2023-12-20T15:36:18;41.53;;;22.15;;
11052;SDS011;55230;42.602;23.470;2023-12-20T15:38:44;35.22;;;18.98;;
11052;SDS011;55230;42.602;23.470;2023-12-20T15:41:09;35.65;;;17.80;;
11052;SDS011;55230;42.602;23.470;2023-12-20T15:43:41;44.55;;;22.02;;
11052;SDS011;55230;42.602;23.470;2023-12-20T15:46:09;38.70;;;21.15;;
11052;SDS011;55230;42.602;23.470;2023-12-20T15:48:34;44.40;;;22.35;;
11052;SDS011;55230;42.602;23.470;2023-12-20T16:01:45;42.00;;;22.30;;
11052;SDS011;55230;42.602;23.470;2023-12-20T16:08:17;43.25;;;21.67;;
11052;SDS011;55230;42.602;23.470;2023-12-20T16:14:30;46.60;;;21.70;;
11052;SDS011;55230;42.602;23.470;2023-12-20T16:16:56;44.67;;;27.30;;
11052;SDS011;55230;42.602;23.470;2023-12-20T16:19:21;49.63;;;30.00;;
11052;SDS011;55230;42.602;23.470;2023-12-20T16:21:46;46.55;;;26.88;;
11052;SDS011;55230;42.602;23.470;2023-12-20T16:24:12;34.40;;;17.90;;
11052;SDS011;55230;42.602;23.470;2023-12-20T16:26:37;27.05;;;14.18;;
11052;SDS011;55230;42.602;23.470;2023-12-20T16:29:03;50.42;;;25.80;;
11052;SDS011;55230;42.602;23.470;2023-12-20T16:31:28;39.08;;;20.52;;
11052;SDS011;55230;42.602;23.470;2023-12-20T16:33:53;24.17;;;12.07;;
11052;SDS011;55230;42.602;23.470;2023-12-20T16:36:19;75.38;;;32.05;;
11052;SDS011;55230;42.602;23.470;2023-12-20T16:38:45;28.92;;;11.30;;
11052;SDS011;55230;42.602;23.470;2023-12-20T16:41:10;31.00;;;12.20;;
11052;SDS011;55230;42.602;23.470;2023-12-20T16:43:35;25.80;;;13.27;;
11052;SDS011;55230;42.602;23.470;2023-12-20T16:46:01;24.48;;;11.65;;
11052;SDS011;55230;42.602;23.470;2023-12-20T16:48:26;27.65;;;13.95;;
11052;SDS011;55230;42.602;23.470;2023-12-20T16:50:52;39.03;;;18.33;;
11052;SDS011;55230;42.602;23.470;2023-12-20T16:53:17;27.23;;;14.38;;